createdAt,value
2023-03-29T00:00:58.401Z,23.94
2023-03-29T00:01:58.390Z,23.92
2023-03-29T00:02:58.483Z,23.91
2023-03-29T00:04:00.448Z,23.94
2023-03-29T00:04:58.395Z,23.92
2023-03-29T00:05:58.373Z,23.92
2023-03-29T00:06:58.372Z,23.94
2023-03-29T00:07:58.332Z,23.95
2023-03-29T00:08:58.312Z,23.94
2023-03-29T00:09:58.286Z,23.92
2023-03-29T00:10:58.266Z,23.94
2023-03-29T00:11:58.246Z,23.94
2023-03-29T00:12:58.228Z,23.94
2023-03-29T00:13:58.210Z,23.94
2023-03-29T00:14:58.180Z,23.95
2023-03-29T00:15:58.156Z,23.95
2023-03-29T00:16:58.180Z,23.95
2023-03-29T00:17:58.197Z,23.95
2023-03-29T00:18:58.105Z,23.95
2023-03-29T00:19:58.085Z,23.94
2023-03-29T00:20:58.063Z,23.95
2023-03-29T00:21:58.045Z,23.92
2023-03-29T00:22:58.029Z,23.92
2023-03-29T00:23:58.003Z,23.92
2023-03-29T00:24:57.996Z,23.92
2023-03-29T00:25:57.972Z,23.92
2023-03-29T00:26:57.957Z,23.91
2023-03-29T00:27:57.939Z,23.89
2023-03-29T00:28:57.916Z,23.89
2023-03-29T00:29:58.918Z,23.89
2023-03-29T00:30:57.910Z,23.91
2023-03-29T00:31:57.901Z,23.89
2023-03-29T00:32:57.920Z,23.89
2023-03-29T00:33:57.834Z,23.88
2023-03-29T00:34:57.812Z,23.88
2023-03-29T00:35:57.843Z,23.88
2023-03-29T00:36:57.772Z,23.89
2023-03-29T00:37:57.757Z,23.89
2023-03-29T00:38:57.727Z,23.89
2023-03-29T00:39:57.710Z,23.91
2023-03-29T00:40:57.726Z,23.89
2023-03-29T00:41:57.790Z,23.89
2023-03-29T00:42:57.769Z,23.89
2023-03-29T00:43:57.809Z,23.88
2023-03-29T00:44:57.819Z,23.89
2023-03-29T00:45:57.923Z,23.92
2023-03-29T00:46:57.872Z,23.91
2023-03-29T00:47:58.003Z,23.91
2023-03-29T00:48:57.928Z,23.94
2023-03-29T00:49:57.959Z,23.91
2023-03-29T00:50:58.384Z,23.91
2023-03-29T00:51:58.005Z,23.92
2023-03-29T00:52:58.015Z,23.92
2023-03-29T00:53:58.048Z,23.87
2023-03-29T00:54:58.072Z,23.89
2023-03-29T00:55:58.100Z,23.89
2023-03-29T00:56:58.131Z,23.89
2023-03-29T00:57:58.110Z,23.89
2023-03-29T00:58:58.115Z,23.91
2023-03-29T00:59:58.112Z,23.89
2023-03-29T01:00:58.128Z,23.89
2023-03-29T01:01:58.247Z,23.88
2023-03-29T01:02:58.274Z,23.89
2023-03-29T01:03:58.189Z,23.91
2023-03-29T01:04:58.196Z,23.87
2023-03-29T01:05:58.236Z,23.87
2023-03-29T01:06:58.269Z,23.88
2023-03-29T01:07:58.294Z,23.89
2023-03-29T01:08:58.203Z,23.88
2023-03-29T01:09:58.217Z,23.87
2023-03-29T01:10:58.220Z,23.89
2023-03-29T01:11:58.230Z,23.89
2023-03-29T01:12:58.225Z,23.87
2023-03-29T01:13:58.242Z,23.87
2023-03-29T01:14:58.253Z,23.87
2023-03-29T01:15:58.283Z,23.87
2023-03-29T01:16:58.348Z,23.87
2023-03-29T01:17:58.464Z,23.87
2023-03-29T01:18:58.312Z,23.85
2023-03-29T01:19:58.365Z,23.84
2023-03-29T01:20:58.309Z,23.84
2023-03-29T01:21:58.312Z,23.84
2023-03-29T01:22:58.326Z,23.84
2023-03-29T01:23:58.404Z,23.87
2023-03-29T01:24:58.345Z,23.89
2023-03-29T01:25:58.351Z,23.87
2023-03-29T01:26:58.352Z,23.87
2023-03-29T01:27:58.381Z,23.85
2023-03-29T01:28:58.366Z,23.87
2023-03-29T01:29:58.428Z,23.85
2023-03-29T01:30:58.396Z,23.88
2023-03-29T01:31:58.431Z,23.87
2023-03-29T01:32:58.475Z,23.88
2023-03-29T01:33:58.477Z,23.88
2023-03-29T01:34:58.499Z,23.88
2023-03-29T01:35:58.634Z,23.89
2023-03-29T01:36:58.575Z,23.87
2023-03-29T01:37:58.582Z,23.88
2023-03-29T01:38:58.618Z,23.88
2023-03-29T01:39:58.694Z,23.88
2023-03-29T01:40:58.682Z,23.87
2023-03-29T01:41:58.705Z,23.85
2023-03-29T01:42:58.734Z,23.88
2023-03-29T01:43:58.762Z,23.88
2023-03-29T01:44:58.827Z,23.87
2023-03-29T01:45:58.847Z,23.87
2023-03-29T01:46:58.837Z,23.89
2023-03-29T01:47:58.911Z,23.88
2023-03-29T01:48:58.901Z,23.85
2023-03-29T01:49:58.936Z,23.87
2023-03-29T01:50:59.055Z,23.89
2023-03-29T01:51:58.972Z,23.88
2023-03-29T01:52:59.008Z,23.87
2023-03-29T01:53:59.031Z,23.87
2023-03-29T01:54:59.063Z,23.84
2023-03-29T01:55:59.095Z,23.88
2023-03-29T01:56:59.156Z,23.87
2023-03-29T01:57:59.162Z,23.88
2023-03-29T01:58:59.169Z,23.87
2023-03-29T01:59:59.243Z,23.87
2023-03-29T02:00:59.284Z,23.88
2023-03-29T02:01:59.316Z,23.85
2023-03-29T02:02:59.396Z,23.87
2023-03-29T02:03:59.316Z,23.85
2023-03-29T02:04:59.906Z,23.87
2023-03-29T02:05:59.370Z,23.87
2023-03-29T02:06:59.409Z,23.88
2023-03-29T02:07:59.401Z,23.87
2023-03-29T02:08:59.430Z,23.85
2023-03-29T02:09:59.475Z,23.89
2023-03-29T02:11:00.054Z,23.87
2023-03-29T02:11:59.521Z,23.87
2023-03-29T02:12:59.543Z,23.88
2023-03-29T02:13:59.573Z,23.89
2023-03-29T02:14:59.598Z,23.91
2023-03-29T02:16:00.474Z,23.88
2023-03-29T02:16:59.909Z,23.89
2023-03-29T02:17:59.761Z,23.89
2023-03-29T02:18:59.714Z,23.88
2023-03-29T02:19:59.747Z,23.88
2023-03-29T02:20:59.916Z,23.88
2023-03-29T02:21:59.807Z,23.89
2023-03-29T02:22:59.833Z,23.88
2023-03-29T02:23:59.856Z,23.88
2023-03-29T02:24:59.888Z,23.91
2023-03-29T02:25:59.902Z,23.89
2023-03-29T02:26:59.931Z,23.91
2023-03-29T02:27:59.957Z,23.88
2023-03-29T02:28:59.987Z,23.91
2023-03-29T02:30:01.264Z,23.91
2023-03-29T02:31:00.291Z,23.88
2023-03-29T02:32:00.051Z,23.89
2023-03-29T02:33:00.235Z,23.88
2023-03-29T02:34:00.144Z,23.89
2023-03-29T02:35:00.153Z,23.85
2023-03-29T02:36:00.212Z,23.89
2023-03-29T02:37:00.220Z,23.88
2023-03-29T02:38:00.230Z,23.89
2023-03-29T02:39:00.264Z,23.88
2023-03-29T02:40:00.295Z,23.88
2023-03-29T02:41:01.152Z,23.88
2023-03-29T02:42:00.439Z,23.88
2023-03-29T02:43:00.386Z,23.85
2023-03-29T02:44:01.407Z,23.88
2023-03-29T02:45:00.447Z,23.87
2023-03-29T02:46:00.484Z,23.88
2023-03-29T02:47:00.550Z,23.88
2023-03-29T02:48:00.631Z,23.87
2023-03-29T02:49:00.568Z,23.89
2023-03-29T02:50:00.609Z,23.88
2023-03-29T02:51:00.804Z,23.89
2023-03-29T02:52:00.651Z,23.89
2023-03-29T02:53:00.695Z,23.89
2023-03-29T02:54:00.713Z,23.89
2023-03-29T02:55:00.758Z,23.92
2023-03-29T02:56:00.830Z,23.88
2023-03-29T02:57:00.867Z,23.89
2023-03-29T02:58:00.827Z,23.88
2023-03-29T02:59:00.852Z,23.89
2023-03-29T03:00:01.158Z,23.88
2023-03-29T03:01:01.228Z,23.89
2023-03-29T03:02:02.035Z,23.91
2023-03-29T03:03:02.006Z,23.92
2023-03-29T03:04:01.036Z,23.88
2023-03-29T03:05:01.036Z,23.85
2023-03-29T03:06:01.041Z,23.85
2023-03-29T03:07:01.053Z,23.87
2023-03-29T03:08:01.072Z,23.85
2023-03-29T03:09:01.090Z,23.85
2023-03-29T03:10:01.105Z,23.85
2023-03-29T03:11:01.294Z,23.85
2023-03-29T03:12:01.115Z,23.80
2023-03-29T03:13:01.130Z,23.83
2023-03-29T03:14:01.140Z,23.83
2023-03-29T03:15:01.160Z,23.81
2023-03-29T03:16:01.929Z,23.81
2023-03-29T03:17:03.898Z,23.81
2023-03-29T03:18:01.149Z,23.80
2023-03-29T03:19:01.090Z,23.81
2023-03-29T03:20:01.070Z,23.81
2023-03-29T03:21:01.280Z,23.78
2023-03-29T03:22:01.009Z,23.80
2023-03-29T03:23:01.004Z,23.78
2023-03-29T03:24:00.976Z,23.78
2023-03-29T03:25:00.955Z,23.78
2023-03-29T03:26:00.939Z,23.78
2023-03-29T03:27:00.913Z,23.78
2023-03-29T03:28:00.877Z,23.77
2023-03-29T03:29:00.873Z,23.77
2023-03-29T03:30:01.080Z,23.77
2023-03-29T03:31:00.976Z,23.77
2023-03-29T03:32:00.835Z,23.75
2023-03-29T03:33:00.798Z,23.74
2023-03-29T03:34:00.760Z,23.75
2023-03-29T03:35:00.735Z,23.75
2023-03-29T03:36:00.751Z,23.74
2023-03-29T03:37:00.700Z,23.77
2023-03-29T03:38:00.683Z,23.75
2023-03-29T03:39:00.658Z,23.74
2023-03-29T03:40:00.721Z,23.77
2023-03-29T03:41:00.950Z,23.77
2023-03-29T03:42:00.591Z,23.77
2023-03-29T03:43:00.581Z,23.77
2023-03-29T03:44:00.558Z,23.78
2023-03-29T03:45:00.523Z,23.78
2023-03-29T03:46:00.561Z,23.78
2023-03-29T03:47:00.499Z,23.78
2023-03-29T03:48:00.535Z,23.80
2023-03-29T03:49:00.429Z,23.81
2023-03-29T03:50:00.400Z,23.78
2023-03-29T03:51:00.709Z,23.81
2023-03-29T03:52:00.353Z,23.80
2023-03-29T03:53:00.326Z,23.81
2023-03-29T03:54:00.306Z,23.81
2023-03-29T03:55:00.306Z,23.81
2023-03-29T03:56:00.249Z,23.84
2023-03-29T03:57:00.254Z,23.84
2023-03-29T03:58:00.196Z,23.83
2023-03-29T03:59:00.182Z,23.84
2023-03-29T04:00:00.215Z,23.87
2023-03-29T04:01:00.249Z,23.84
2023-03-29T04:02:00.196Z,23.87
2023-03-29T04:03:00.134Z,23.85
2023-03-29T04:04:00.120Z,23.84
2023-03-29T04:05:00.002Z,23.87
2023-03-29T04:05:59.970Z,23.87
2023-03-29T04:06:59.946Z,23.88
2023-03-29T04:07:59.924Z,23.88
2023-03-29T04:08:59.970Z,23.87
2023-03-29T04:09:59.858Z,23.88
2023-03-29T04:11:00.105Z,23.89
2023-03-29T04:11:59.813Z,23.89
2023-03-29T04:12:59.796Z,23.91
2023-03-29T04:13:59.762Z,23.91
2023-03-29T04:14:59.734Z,23.89
2023-03-29T04:16:01.515Z,23.91
2023-03-29T04:16:59.679Z,23.89
2023-03-29T04:17:59.714Z,23.89
2023-03-29T04:18:59.669Z,23.91
2023-03-29T04:19:59.589Z,23.89
2023-03-29T04:20:59.664Z,23.91
2023-03-29T04:21:59.531Z,23.92
2023-03-29T04:22:59.504Z,23.92
2023-03-29T04:23:59.485Z,23.97
2023-03-29T04:24:59.448Z,23.95
2023-03-29T04:25:59.423Z,23.95
2023-03-29T04:26:59.398Z,23.94
2023-03-29T04:27:59.381Z,23.94
2023-03-29T04:28:59.352Z,23.94
2023-03-29T04:29:59.323Z,23.98
2023-03-29T04:30:59.311Z,23.95
2023-03-29T04:31:59.276Z,23.98
2023-03-29T04:32:59.265Z,23.97
2023-03-29T04:34:00.409Z,24.00
2023-03-29T04:34:59.251Z,23.98
2023-03-29T04:35:59.337Z,24.00
2023-03-29T04:36:59.234Z,24.00
2023-03-29T04:37:59.241Z,24.00
2023-03-29T04:38:59.231Z,24.00
2023-03-29T04:39:59.991Z,24.01
2023-03-29T04:40:59.294Z,24.01
2023-03-29T04:41:59.220Z,24.01
2023-03-29T04:42:59.227Z,24.00
2023-03-29T04:43:59.298Z,24.01
2023-03-29T04:44:59.253Z,24.02
2023-03-29T04:45:59.237Z,24.04
2023-03-29T04:46:59.222Z,24.05
2023-03-29T04:47:59.254Z,24.01
2023-03-29T04:48:59.233Z,24.05
2023-03-29T04:49:59.234Z,24.04
2023-03-29T04:50:59.296Z,24.04
2023-03-29T04:51:59.222Z,24.05
2023-03-29T04:52:59.230Z,24.02
2023-03-29T04:53:59.237Z,24.05
2023-03-29T04:54:59.232Z,24.05
2023-03-29T04:55:59.236Z,24.05
2023-03-29T04:56:59.264Z,24.04
2023-03-29T04:57:59.239Z,24.04
2023-03-29T04:58:59.263Z,24.04
2023-03-29T04:59:59.267Z,24.04
2023-03-29T05:00:59.359Z,24.04
2023-03-29T05:01:59.262Z,24.05
2023-03-29T05:02:59.271Z,24.05
2023-03-29T05:03:59.261Z,24.05
2023-03-29T05:04:59.347Z,24.08
2023-03-29T05:05:59.246Z,24.05
2023-03-29T05:06:59.252Z,24.07
2023-03-29T05:07:59.253Z,24.07
2023-03-29T05:08:59.467Z,24.05
2023-03-29T05:09:59.267Z,24.07
2023-03-29T05:10:59.347Z,24.07
2023-03-29T05:11:59.269Z,24.05
2023-03-29T05:12:59.262Z,24.04
2023-03-29T05:13:59.276Z,24.07
2023-03-29T05:14:59.296Z,24.07
2023-03-29T05:15:59.324Z,24.07
2023-03-29T05:16:59.302Z,24.08
2023-03-29T05:17:59.413Z,24.05
2023-03-29T05:18:59.323Z,24.07
2023-03-29T05:19:59.339Z,24.08
2023-03-29T05:20:59.508Z,24.05
2023-03-29T05:21:59.350Z,24.05
2023-03-29T05:22:59.368Z,24.04
2023-03-29T05:23:59.370Z,24.04
2023-03-29T05:24:59.396Z,24.02
2023-03-29T05:25:59.391Z,24.04
2023-03-29T05:26:59.415Z,24.02
2023-03-29T05:27:59.414Z,24.01
2023-03-29T05:28:59.412Z,24.00
2023-03-29T05:29:59.431Z,23.91
2023-03-29T05:30:59.597Z,23.85
2023-03-29T05:31:59.542Z,23.83
2023-03-29T05:32:59.602Z,23.71
2023-03-29T05:33:59.569Z,23.64
2023-03-29T05:35:00.437Z,23.60
2023-03-29T05:35:59.610Z,23.56
2023-03-29T05:36:59.643Z,23.58
2023-03-29T05:37:59.692Z,23.63
2023-03-29T05:38:59.756Z,23.58
2023-03-29T05:40:05.702Z,23.58
2023-03-29T05:41:00.941Z,23.63
2023-03-29T05:41:59.721Z,23.58
2023-03-29T05:42:59.707Z,23.57
2023-03-29T05:43:59.688Z,23.60
2023-03-29T05:44:59.687Z,23.60
2023-03-29T05:45:59.678Z,23.61
2023-03-29T05:46:59.621Z,23.60
2023-03-29T05:47:59.615Z,23.61
2023-03-29T05:48:59.568Z,23.66
2023-03-29T05:49:59.540Z,23.67
2023-03-29T05:50:59.512Z,23.66
2023-03-29T05:51:59.552Z,23.70
2023-03-29T05:52:59.535Z,23.70
2023-03-29T05:53:59.987Z,23.68
2023-03-29T05:55:00.399Z,23.68
2023-03-29T05:55:59.510Z,23.68
2023-03-29T05:56:59.513Z,23.68
2023-03-29T05:57:59.492Z,23.67
2023-03-29T05:58:59.510Z,23.71
2023-03-29T05:59:59.510Z,23.73
2023-03-29T06:00:59.510Z,23.71
2023-03-29T06:01:59.488Z,23.73
2023-03-29T06:03:09.856Z,23.71
2023-03-29T06:04:00.542Z,23.71
2023-03-29T06:04:59.510Z,23.73
2023-03-29T06:05:59.460Z,23.71
2023-03-29T06:06:59.437Z,23.73
2023-03-29T06:07:59.396Z,23.74
2023-03-29T06:08:59.366Z,23.74
2023-03-29T06:09:59.331Z,23.77
2023-03-29T06:10:59.961Z,23.77
2023-03-29T06:11:59.281Z,23.81
2023-03-29T06:12:59.239Z,23.83
2023-03-29T06:13:59.212Z,23.83
2023-03-29T06:14:59.183Z,23.84
2023-03-29T06:15:59.143Z,23.85
2023-03-29T06:16:59.175Z,23.87
2023-03-29T06:17:59.106Z,23.84
2023-03-29T06:18:59.054Z,23.88
2023-03-29T06:19:59.099Z,23.91
2023-03-29T06:20:59.045Z,23.91
2023-03-29T06:21:58.992Z,23.92
2023-03-29T06:22:59.030Z,23.98
2023-03-29T06:23:58.936Z,23.98
2023-03-29T06:24:58.904Z,24.00
2023-03-29T06:25:58.920Z,24.02
2023-03-29T06:26:58.972Z,24.07
2023-03-29T06:27:59.998Z,24.07
2023-03-29T06:28:59.991Z,24.08
2023-03-29T06:29:59.091Z,24.07
2023-03-29T06:30:59.192Z,24.08
2023-03-29T06:31:59.237Z,24.04
2023-03-29T06:32:59.254Z,24.05
2023-03-29T06:33:59.233Z,24.05
2023-03-29T06:34:59.239Z,24.04
2023-03-29T06:35:59.960Z,24.04
2023-03-29T06:36:59.260Z,24.05
2023-03-29T06:37:59.270Z,24.04
2023-03-29T06:38:59.280Z,24.04
2023-03-29T06:39:59.296Z,24.05
2023-03-29T06:40:59.326Z,24.08
2023-03-29T06:42:01.982Z,24.08
2023-03-29T06:43:00.334Z,24.13
2023-03-29T06:43:59.235Z,24.15
2023-03-29T06:44:59.199Z,24.16
2023-03-29T06:45:59.214Z,24.18
2023-03-29T06:46:59.154Z,24.18
2023-03-29T06:47:59.191Z,24.19
2023-03-29T06:48:59.094Z,24.25
2023-03-29T06:49:59.072Z,24.25
2023-03-29T06:50:59.043Z,24.25
2023-03-29T06:51:59.294Z,24.29
2023-03-29T06:52:58.986Z,24.30
2023-03-29T06:53:58.971Z,24.32
2023-03-29T06:54:58.942Z,24.33
2023-03-29T06:55:58.904Z,24.36
2023-03-29T06:56:58.937Z,24.40
2023-03-29T06:58:01.734Z,24.40
2023-03-29T06:58:58.829Z,24.44
2023-03-29T06:59:58.803Z,24.49
2023-03-29T07:00:58.776Z,24.49
2023-03-29T07:01:58.896Z,24.50
2023-03-29T07:02:58.855Z,24.53
2023-03-29T07:03:58.731Z,24.55
2023-03-29T07:04:58.694Z,24.55
2023-03-29T07:05:58.741Z,24.57
2023-03-29T07:06:58.646Z,24.60
2023-03-29T07:07:58.699Z,24.63
2023-03-29T07:08:58.608Z,24.60
2023-03-29T07:09:58.623Z,24.62
2023-03-29T07:10:58.560Z,24.64
2023-03-29T07:11:58.526Z,24.64
2023-03-29T07:12:58.498Z,24.63
2023-03-29T07:13:58.463Z,24.64
2023-03-29T07:14:58.434Z,24.66
2023-03-29T07:15:58.456Z,24.73
2023-03-29T07:16:58.423Z,24.74
2023-03-29T07:17:58.431Z,24.77
2023-03-29T07:18:58.348Z,24.77
2023-03-29T07:19:58.356Z,24.78
2023-03-29T07:20:58.302Z,24.78
2023-03-29T07:21:58.283Z,24.75
2023-03-29T07:22:58.264Z,24.63
2023-03-29T07:23:58.239Z,24.40
2023-03-29T07:24:58.229Z,24.26
2023-03-29T07:25:58.212Z,24.19
2023-03-29T07:27:04.047Z,24.13
2023-03-29T07:27:59.391Z,24.12
2023-03-29T07:28:58.171Z,24.12
2023-03-29T07:29:58.165Z,24.13
2023-03-29T07:30:58.146Z,24.18
2023-03-29T07:31:58.139Z,24.19
2023-03-29T07:32:58.250Z,24.23
2023-03-29T07:33:58.145Z,24.28
2023-03-29T07:34:58.093Z,24.35
2023-03-29T07:35:58.187Z,24.36
2023-03-29T07:36:58.066Z,24.42
2023-03-29T07:37:58.044Z,24.46
2023-03-29T07:38:58.027Z,24.47
2023-03-29T07:39:58.045Z,24.46
2023-03-29T07:40:58.094Z,24.52
2023-03-29T07:41:58.164Z,24.55
2023-03-29T07:42:58.192Z,24.56
2023-03-29T07:43:58.294Z,24.60
2023-03-29T07:44:58.337Z,24.62
2023-03-29T07:45:58.358Z,24.62
2023-03-29T07:46:58.372Z,24.63
2023-03-29T07:47:58.674Z,24.67
2023-03-29T07:48:58.424Z,24.68
2023-03-29T07:49:58.458Z,24.71
2023-03-29T07:50:58.498Z,24.73
2023-03-29T07:51:58.510Z,24.74
2023-03-29T07:52:58.536Z,24.74
2023-03-29T07:53:58.602Z,24.75
2023-03-29T07:54:58.576Z,24.78
2023-03-29T07:55:58.619Z,24.78
2023-03-29T07:56:58.675Z,24.80
2023-03-29T07:57:58.637Z,24.80
2023-03-29T07:58:58.670Z,24.81
2023-03-29T07:59:58.685Z,24.83
2023-03-29T08:00:58.782Z,24.84
2023-03-29T08:01:58.713Z,24.85
2023-03-29T08:02:59.555Z,24.88
2023-03-29T08:03:58.856Z,24.87
2023-03-29T08:04:58.771Z,24.87
2023-03-29T08:05:58.755Z,24.88
2023-03-29T08:06:58.777Z,24.88
2023-03-29T08:07:58.785Z,24.90
2023-03-29T08:08:58.791Z,24.91
2023-03-29T08:09:58.795Z,24.90
2023-03-29T08:10:58.808Z,24.90
2023-03-29T08:11:58.814Z,24.90
2023-03-29T08:12:59.033Z,24.91
2023-03-29T08:13:58.836Z,24.62
2023-03-29T08:14:58.839Z,24.49
2023-03-29T08:15:58.830Z,24.39
2023-03-29T08:16:58.898Z,24.36
2023-03-29T08:17:58.891Z,24.16
2023-03-29T08:18:59.539Z,24.05
2023-03-29T08:19:58.987Z,23.97
2023-03-29T08:21:00.855Z,23.92
2023-03-29T08:21:58.921Z,23.87
2023-03-29T08:22:58.891Z,23.85
2023-03-29T08:23:58.890Z,23.88
2023-03-29T08:24:58.860Z,23.88
2023-03-29T08:25:59.534Z,23.92
2023-03-29T08:26:58.822Z,23.94
2023-03-29T08:27:58.829Z,23.98
2023-03-29T08:28:58.796Z,24.02
2023-03-29T08:29:58.777Z,24.08
2023-03-29T08:30:58.867Z,24.12
2023-03-29T08:31:58.749Z,24.18
2023-03-29T08:32:58.741Z,24.22
2023-03-29T08:33:58.734Z,24.29
2023-03-29T08:34:58.775Z,24.33
2023-03-29T08:35:58.878Z,24.36
2023-03-29T08:36:59.466Z,24.40
2023-03-29T08:37:58.837Z,24.43
2023-03-29T08:38:58.844Z,24.46
2023-03-29T08:39:58.856Z,24.46
2023-03-29T08:40:58.844Z,24.50
2023-03-29T08:41:58.857Z,24.53
2023-03-29T08:42:58.841Z,24.53
2023-03-29T08:43:58.825Z,24.55
2023-03-29T08:44:58.819Z,24.60
2023-03-29T08:45:58.817Z,24.56
2023-03-29T08:46:59.697Z,24.59
2023-03-29T08:47:58.800Z,24.59
2023-03-29T08:48:58.730Z,24.59
2023-03-29T08:49:58.703Z,24.60
2023-03-29T08:50:58.716Z,24.57
2023-03-29T08:51:58.724Z,24.59
2023-03-29T08:53:01.542Z,24.57
2023-03-29T08:53:58.756Z,24.57
2023-03-29T08:54:59.551Z,24.57
2023-03-29T08:55:58.655Z,24.57
2023-03-29T08:56:59.582Z,24.55
2023-03-29T08:57:58.598Z,24.59
2023-03-29T08:59:00.482Z,24.55
2023-03-29T08:59:58.541Z,24.56
2023-03-29T09:00:58.499Z,24.57
2023-03-29T09:01:58.540Z,24.56
2023-03-29T09:02:58.513Z,24.56
2023-03-29T09:03:58.449Z,24.56
2023-03-29T09:04:58.370Z,24.57
2023-03-29T09:05:58.337Z,24.60
2023-03-29T09:06:58.308Z,24.63
2023-03-29T09:07:58.291Z,24.64
2023-03-29T09:08:58.321Z,24.67
2023-03-29T09:09:58.342Z,24.71
2023-03-29T09:10:58.372Z,24.77
2023-03-29T09:11:58.412Z,24.80
2023-03-29T09:12:58.438Z,24.87
2023-03-29T09:13:58.458Z,24.90
2023-03-29T09:14:58.483Z,24.91
2023-03-29T09:15:58.559Z,25.01
2023-03-29T09:16:58.566Z,25.04
2023-03-29T09:17:58.667Z,25.08
2023-03-29T09:18:58.633Z,25.14
2023-03-29T09:19:58.664Z,25.15
2023-03-29T09:20:58.785Z,25.19
2023-03-29T09:21:58.747Z,25.22
2023-03-29T09:22:59.557Z,25.25
2023-03-29T09:23:58.822Z,25.26
2023-03-29T09:24:58.823Z,25.29
2023-03-29T09:25:59.618Z,25.28
2023-03-29T09:26:58.912Z,25.32
2023-03-29T09:27:58.926Z,25.32
2023-03-29T09:28:59.001Z,25.32
2023-03-29T09:29:59.070Z,25.32
2023-03-29T09:30:58.930Z,25.32
2023-03-29T09:31:58.953Z,25.30
2023-03-29T09:32:58.937Z,25.30
2023-03-29T09:33:58.838Z,25.32
2023-03-29T09:34:58.808Z,25.33
2023-03-29T09:35:58.839Z,25.32
2023-03-29T09:36:58.778Z,25.30
2023-03-29T09:37:58.763Z,25.30
2023-03-29T09:38:58.739Z,25.32
2023-03-29T09:39:58.715Z,25.32
2023-03-29T09:40:58.833Z,25.30
2023-03-29T09:41:58.683Z,25.28
2023-03-29T09:42:58.692Z,25.26
2023-03-29T09:43:59.086Z,25.29
2023-03-29T09:44:58.653Z,25.25
2023-03-29T09:45:58.675Z,25.25
2023-03-29T09:46:58.653Z,25.25
2023-03-29T09:47:58.696Z,25.25
2023-03-29T09:48:58.657Z,25.23
2023-03-29T09:49:58.637Z,25.23
2023-03-29T09:50:58.624Z,25.22
2023-03-29T09:51:58.628Z,25.22
2023-03-29T09:52:58.666Z,25.19
2023-03-29T09:53:59.071Z,25.19
2023-03-29T09:54:58.621Z,25.18
2023-03-29T09:55:58.643Z,25.21
2023-03-29T09:56:58.685Z,25.19
2023-03-29T09:57:59.579Z,25.17
2023-03-29T09:58:58.630Z,25.15
2023-03-29T09:59:58.623Z,25.14
2023-03-29T10:00:58.664Z,25.12
2023-03-29T10:01:59.564Z,25.12
2023-03-29T10:02:58.593Z,25.14
2023-03-29T10:03:58.531Z,25.12
2023-03-29T10:04:58.489Z,25.09
2023-03-29T10:05:58.464Z,25.09
2023-03-29T10:06:58.424Z,25.08
2023-03-29T10:07:58.397Z,25.08
2023-03-29T10:08:58.367Z,25.08
2023-03-29T10:09:58.431Z,25.04
2023-03-29T10:10:58.328Z,25.05
2023-03-29T10:11:58.477Z,25.04
2023-03-29T10:12:58.268Z,25.01
2023-03-29T10:13:58.297Z,25.02
2023-03-29T10:14:58.206Z,25.01
2023-03-29T10:15:58.180Z,25.02
2023-03-29T10:16:58.179Z,25.01
2023-03-29T10:17:58.152Z,25.01
2023-03-29T10:18:58.106Z,24.97
2023-03-29T10:19:58.085Z,24.99
2023-03-29T10:20:58.051Z,24.97
2023-03-29T10:21:58.031Z,25.01
2023-03-29T10:22:58.029Z,24.99
2023-03-29T10:23:57.987Z,24.99
2023-03-29T10:24:57.979Z,24.97
2023-03-29T10:25:57.940Z,24.98
2023-03-29T10:26:57.928Z,24.99
2023-03-29T10:27:57.895Z,24.97
2023-03-29T10:28:57.863Z,24.98
2023-03-29T10:29:58.100Z,24.99
2023-03-29T10:30:57.892Z,24.99
2023-03-29T10:31:57.889Z,24.98
2023-03-29T10:32:57.830Z,24.99
2023-03-29T10:33:57.785Z,24.98
2023-03-29T10:34:57.803Z,24.99
2023-03-29T10:35:57.899Z,24.98
2023-03-29T10:36:57.788Z,24.99
2023-03-29T10:37:57.778Z,24.98
2023-03-29T10:38:57.781Z,24.98
2023-03-29T10:39:57.779Z,24.98
2023-03-29T10:40:57.777Z,24.98
2023-03-29T10:41:57.781Z,24.99
2023-03-29T10:42:57.782Z,24.97
2023-03-29T10:43:57.774Z,24.98
2023-03-29T10:44:57.784Z,24.97
2023-03-29T10:45:57.878Z,24.97
2023-03-29T10:46:58.592Z,24.98
2023-03-29T10:47:57.844Z,24.98
2023-03-29T10:48:57.798Z,24.98
2023-03-29T10:49:57.789Z,24.95
2023-03-29T10:50:57.792Z,24.95
2023-03-29T10:51:57.787Z,24.97
2023-03-29T10:52:57.793Z,24.97
2023-03-29T10:53:57.784Z,24.97
2023-03-29T10:54:57.794Z,24.97
2023-03-29T10:55:57.786Z,24.95
2023-03-29T10:56:57.917Z,24.95
2023-03-29T10:57:57.782Z,24.97
2023-03-29T10:58:57.791Z,24.95
2023-03-29T10:59:57.800Z,24.95
2023-03-29T11:00:57.782Z,24.95
2023-03-29T11:01:57.874Z,24.98
2023-03-29T11:02:57.863Z,24.98
2023-03-29T11:03:57.972Z,24.98
2023-03-29T11:04:57.829Z,24.98
2023-03-29T11:05:57.803Z,24.97
2023-03-29T11:06:57.817Z,24.98
2023-03-29T11:07:57.809Z,24.97
2023-03-29T11:08:57.831Z,24.97
2023-03-29T11:09:57.815Z,24.97
2023-03-29T11:10:57.837Z,24.94
2023-03-29T11:12:08.529Z,24.92
2023-03-29T11:12:58.803Z,24.95
2023-03-29T11:13:59.821Z,24.95
2023-03-29T11:14:57.743Z,24.92
2023-03-29T11:15:57.785Z,24.94
2023-03-29T11:16:57.689Z,24.94
2023-03-29T11:17:57.730Z,24.97
2023-03-29T11:18:57.639Z,24.92
2023-03-29T11:19:57.633Z,24.95
2023-03-29T11:20:57.596Z,24.97
2023-03-29T11:21:57.598Z,24.95
2023-03-29T11:22:57.619Z,24.94
2023-03-29T11:23:57.601Z,24.95
2023-03-29T11:24:57.657Z,24.95
2023-03-29T11:25:57.611Z,24.95
2023-03-29T11:26:57.608Z,24.95
2023-03-29T11:27:57.615Z,24.95
2023-03-29T11:28:57.684Z,24.94
2023-03-29T11:29:57.615Z,24.97
2023-03-29T11:30:57.665Z,24.94
2023-03-29T11:31:57.692Z,24.94
2023-03-29T11:32:57.638Z,24.92
2023-03-29T11:33:57.633Z,24.91
2023-03-29T11:34:57.661Z,24.91
2023-03-29T11:35:57.668Z,24.91
2023-03-29T11:36:57.636Z,24.88
2023-03-29T11:37:57.638Z,24.90
2023-03-29T11:38:57.639Z,24.90
2023-03-29T11:39:57.643Z,24.88
2023-03-29T11:40:57.738Z,24.88
2023-03-29T11:41:57.669Z,24.90
2023-03-29T11:42:57.685Z,24.88
2023-03-29T11:43:57.686Z,24.88
2023-03-29T11:44:57.706Z,24.88
2023-03-29T11:45:57.772Z,24.87
2023-03-29T11:46:57.808Z,24.87
2023-03-29T11:47:57.777Z,24.85
2023-03-29T11:48:57.757Z,24.85
2023-03-29T11:49:57.799Z,24.84
2023-03-29T11:50:57.786Z,24.84
2023-03-29T11:51:57.811Z,24.83
2023-03-29T11:52:57.802Z,24.80
2023-03-29T11:53:57.811Z,24.80
2023-03-29T11:54:57.865Z,24.80
2023-03-29T11:55:58.122Z,24.80
2023-03-29T11:56:57.855Z,24.81
2023-03-29T11:57:57.878Z,24.80
2023-03-29T11:58:57.902Z,24.77
2023-03-29T11:59:57.903Z,24.80
2023-03-29T12:00:57.947Z,24.77
2023-03-29T12:01:57.972Z,24.77
2023-03-29T12:02:58.043Z,24.75
2023-03-29T12:03:58.069Z,24.74
2023-03-29T12:04:57.996Z,24.74
2023-03-29T12:05:58.024Z,24.77
2023-03-29T12:06:58.037Z,24.74
2023-03-29T12:07:58.053Z,24.71
2023-03-29T12:08:58.073Z,24.73
2023-03-29T12:09:58.122Z,24.73
2023-03-29T12:10:58.107Z,24.74
2023-03-29T12:11:58.130Z,24.73
2023-03-29T12:12:58.157Z,24.70
2023-03-29T12:13:58.163Z,24.73
2023-03-29T12:14:58.269Z,24.73
2023-03-29T12:15:58.209Z,24.71
2023-03-29T12:16:58.245Z,24.73
2023-03-29T12:17:58.283Z,24.73
2023-03-29T12:18:58.277Z,24.73
2023-03-29T12:19:58.289Z,24.70
2023-03-29T12:20:58.301Z,24.70
2023-03-29T12:21:58.315Z,24.70
2023-03-29T12:22:58.339Z,24.70
2023-03-29T12:23:58.349Z,24.71
2023-03-29T12:24:58.380Z,24.70
2023-03-29T12:25:58.398Z,24.71
2023-03-29T12:26:58.421Z,24.70
2023-03-29T12:27:58.441Z,24.71
2023-03-29T12:28:58.455Z,24.70
2023-03-29T12:29:58.473Z,24.70
2023-03-29T12:30:58.504Z,24.68
2023-03-29T12:31:58.680Z,24.68
2023-03-29T12:32:58.619Z,24.64
2023-03-29T12:33:58.603Z,24.66
2023-03-29T12:34:58.624Z,24.59
2023-03-29T12:35:58.708Z,24.60
2023-03-29T12:36:58.686Z,24.57
2023-03-29T12:37:58.728Z,24.55
2023-03-29T12:38:59.635Z,24.56
2023-03-29T12:39:58.796Z,24.52
2023-03-29T12:40:58.830Z,24.56
2023-03-29T12:41:58.858Z,24.53
2023-03-29T12:42:58.896Z,24.52
2023-03-29T12:43:59.009Z,24.50
2023-03-29T12:44:59.004Z,24.52
2023-03-29T12:45:59.054Z,24.52
2023-03-29T12:46:59.040Z,24.53
2023-03-29T12:47:59.131Z,24.52
2023-03-29T12:48:59.114Z,24.53
2023-03-29T12:49:59.150Z,24.53
2023-03-29T12:50:59.175Z,24.53
2023-03-29T12:51:59.205Z,24.55
2023-03-29T12:52:59.233Z,24.55